Time;durP1;ratioP1;P1;durP2;ratioP2;P2;SDS_P1;SDS_P2;PMS_P1;PMS_P2;Temp;Humidity;BMP_temperature;BMP_pressure;BME280_temperature;BME280_humidity;BME280_pressure;Samples;Min_cycle;Max_cycle;Signal;HPM_P1;HPM_P2
2023/01/10 09:10:08;;;;;;;;;;;;;;;5.95;71.00;100497.84;1086720;54;19943;-80
2023/01/10 09:11:21;;;;;;;;;;;;;;;5.92;70.67;100485.63;1089236;47;19990;-78
2023/01/10 09:13:51;;;;;;;;;;;;;;;6.06;70.18;100500.63;1088062;54;19962;-79
2023/01/10 09:14:54;;;;;;;;;;;;;;;6.16;70.27;100497.34;1088424;47;19950;-77
2023/01/10 09:15:58;;;;;;;;;;;;;;;6.16;69.99;100500.00;1089947;47;19948;-77
2023/01/10 09:16:59;;;;;;;;;;;;;;;6.15;69.74;100498.31;1087674;54;19960;-78
2023/01/10 09:18:04;;;;;;;;;;;;;;;6.10;69.85;100503.94;1087808;54;19923;-77
2023/01/10 09:19:09;;;;;;;;;;;;;;;6.02;69.44;100499.16;1087648;54;19969;-77
2023/01/10 09:20:14;;;;;;;;;;;;;;;6.02;69.56;100507.13;1091397;47;19950;-77
2023/01/10 09:21:15;;;;;;;;;;;;;;;6.07;69.57;100504.16;1090726;47;19942;-77
2023/01/10 09:22:19;;;;;;;;;;;;;;;6.04;69.73;100507.88;1087755;54;19926;-77
2023/01/10 09:23:24;;;;;;;;;;;;;;;6.02;69.35;100512.44;1087760;54;19967;-77
2023/01/10 09:24:30;;;;;;;;;;;;;;;6.02;69.50;100509.78;1087788;54;19949;-79
2023/01/10 09:26:54;;;;;;;;;;;;;;;6.04;69.15;100505.22;1087691;54;20656;-78
2023/01/10 09:28:01;;;;;;;;;;;;;;;6.04;69.57;100513.19;1087295;54;19946;-81
2023/01/10 09:29:07;;;;;;;;;;;;;;;6.06;69.98;100507.75;1086984;54;19977;-79
2023/01/10 09:30:09;;;;;;;;;;;;;;;6.09;69.77;100505.75;1086783;54;19939;-79
2023/01/10 09:31:22;;;;;;;;;;;;;;;6.11;70.07;100504.78;1087184;47;19986;-80
2023/01/10 09:32:24;;;;;;;;;;;;;;;6.18;70.55;100512.25;1087133;54;19947;-81
2023/01/10 09:33:31;;;;;;;;;;;;;;;6.16;70.59;100515.94;1089077;47;19923;-80
2023/01/10 09:34:35;;;;;;;;;;;;;;;6.14;70.77;100521.38;1087355;54;19929;-81
2023/01/10 09:35:40;;;;;;;;;;;;;;;6.29;70.43;100516.81;1088038;46;19952;-77
2023/01/10 09:36:44;;;;;;;;;;;;;;;6.31;70.93;100514.91;1087452;54;19955;-81
2023/01/10 09:37:47;;;;;;;;;;;;;;;6.35;70.65;100519.03;1087346;54;19946;-81
2023/01/10 09:38:51;;;;;;;;;;;;;;;6.27;70.40;100523.19;1087142;54;19947;-79
2023/01/10 09:39:57;;;;;;;;;;;;;;;6.17;71.19;100533.56;1086440;54;19939;-80
2023/01/10 09:41:11;;;;;;;;;;;;;;;6.35;70.90;100531.47;1086633;54;20594;-80
2023/01/10 09:42:21;;;;;;;;;;;;;;;6.22;70.92;100540.28;1086529;54;20014;-79
2023/01/10 09:43:32;;;;;;;;;;;;;;;6.26;71.03;100534.75;1086809;54;19938;-78
2023/01/10 09:44:45;;;;;;;;;;;;;;;6.21;71.04;100535.06;1086614;54;19942;-80
2023/01/10 09:45:55;;;;;;;;;;;;;;;6.28;71.12;100533.69;1086494;54;20402;-80
2023/01/10 09:47:02;;;;;;;;;;;;;;;6.26;71.28;100532.94;1086071;54;19935;-79
2023/01/10 09:48:12;;;;;;;;;;;;;;;6.30;71.31;100538.88;1086608;54;19962;-79
2023/01/10 09:49:22;;;;;;;;;;;;;;;6.38;71.30;100548.03;1086108;54;19950;-80
2023/01/10 09:50:30;;;;;;;;;;;;;;;6.40;71.12;100539.97;1086468;54;19963;-80
2023/01/10 09:51:37;;;;;;;;;;;;;;;6.28;71.47;100549.63;1087238;54;19957;-80
2023/01/10 09:52:41;;;;;;;;;;;;;;;6.23;71.66;100554.41;1087323;54;19966;-78
2023/01/10 09:53:46;;;;;;;;;;;;;;;6.22;71.43;100558.84;1087914;54;19942;-76
2023/01/10 09:54:54;;;;;;;;;;;;;;;6.19;71.46;100550.25;1087386;54;19923;-78
2023/01/10 09:56:02;;;;;;;;;;;;;;;6.19;71.42;100556.41;1087275;54;19945;-78
2023/01/10 09:57:04;;;;;;;;;;;;;;;6.26;71.48;100566.63;1087184;54;20445;-80
2023/01/10 09:58:09;;;;;;;;;;;;;;;6.21;71.46;100559.81;1087068;39;20357;-80
2023/01/10 09:59:16;;;;;;;;;;;;;;;6.25;71.72;100568.41;1087153;54;19950;-80
2023/01/10 10:00:19;;;;;;;;;;;;;;;6.26;71.52;100572.78;1087095;54;19951;-79
2023/01/10 10:01:25;;;;;;;;;;;;;;;6.25;71.43;100568.41;1087267;54;19946;-80
2023/01/10 10:02:32;;;;;;;;;;;;;;;6.23;71.45;100571.19;1086952;54;19969;-81
2023/01/10 10:03:39;;;;;;;;;;;;;;;6.35;71.42;100566.00;1087802;54;19946;-80
2023/01/10 10:04:41;;;;;;;;;;;;;;;6.33;71.87;100571.38;1088046;54;19938;-78
2023/01/10 10:05:44;;;;;;;;;;;;;;;6.43;71.51;100576.06;1087284;54;19957;-81
2023/01/10 10:06:47;;;;;;;;;;;;;;;6.46;71.26;100576.75;1087329;54;19943;-78
2023/01/10 10:07:53;;;;;;;;;;;;;;;6.61;71.13;100563.34;1087117;54;19950;-80
2023/01/10 10:08:58;;;;;;;;;;;;;;;6.53;70.88;100566.53;1087563;54;19950;-80
2023/01/10 10:09:59;;;;;;;;;;;;;;;6.63;70.98;100564.09;1087011;54;19950;-80
2023/01/10 10:11:12;;;;;;;;;;;;;;;6.74;70.46;100569.50;1086328;54;20763;-80
2023/01/10 10:12:27;;;;;;;;;;;;;;;6.74;70.17;100564.19;1088152;54;20480;-78
2023/01/10 10:13:38;;;;;;;;;;;;;;;6.58;70.60;100558.22;1088150;54;19942;-77
2023/01/10 10:14:47;;;;;;;;;;;;;;;6.53;70.47;100571.84;1088165;54;20900;-77
2023/01/10 10:15:54;;;;;;;;;;;;;;;6.52;70.82;100568.34;1088166;54;19994;-76
2023/01/10 10:17:07;;;;;;;;;;;;;;;6.53;71.07;100572.69;1087178;46;19954;-82
2023/01/10 10:20:55;;;;;;;;;;;;;;;6.52;70.45;100554.19;1087042;54;20011;-81
2023/01/10 10:22:16;;;;;;;;;;;;;;;6.54;70.60;100557.59;1087040;54;19939;-81
2023/01/10 10:28:40;;;;;;;;;;;;;;;6.41;71.22;100565.56;1087504;54;19931;-80
2023/01/10 10:30:01;;;;;;;;;;;;;;;6.36;71.30;100565.88;1086821;54;19946;-80
2023/01/10 10:31:10;;;;;;;;;;;;;;;6.37;71.19;100567.59;1087088;54;19923;-80
2023/01/10 10:32:28;;;;;;;;;;;;;;;6.40;71.52;100569.16;1086566;54;19977;-80
2023/01/10 10:33:40;;;;;;;;;;;;;;;6.47;71.27;100572.25;1086462;54;20038;-80
2023/01/10 10:34:47;;;;;;;;;;;;;;;6.35;71.01;100574.78;1086539;54;20462;-81
2023/01/10 10:35:52;;;;;;;;;;;;;;;6.33;71.48;100568.72;1086550;54;20576;-82
2023/01/10 10:36:58;;;;;;;;;;;;;;;6.29;71.34;100574.34;1086095;54;19946;-80
2023/01/10 10:38:02;;;;;;;;;;;;;;;6.33;71.12;100574.03;1086248;54;19955;-80
2023/01/10 10:39:08;;;;;;;;;;;;;;;6.35;71.12;100569.50;1086575;54;19950;-81
2023/01/10 10:40:18;;;;;;;;;;;;;;;6.29;71.26;100580.53;1086816;54;19946;-81
2023/01/10 10:41:29;;;;;;;;;;;;;;;6.37;70.87;100578.22;1086572;54;19951;-80
2023/01/10 10:42:32;;;;;;;;;;;;;;;6.38;70.45;100579.03;1086461;54;19955;-80
2023/01/10 10:43:41;;;;;;;;;;;;;;;6.43;70.38;100576.94;1086523;54;19947;-80
2023/01/10 10:44:46;;;;;;;;;;;;;;;6.52;69.92;100575.44;1086583;54;20521;-80
2023/01/10 10:45:53;;;;;;;;;;;;;;;6.50;70.04;100566.75;1086236;54;19974;-80
2023/01/10 10:46:56;;;;;;;;;;;;;;;6.57;69.94;100568.03;1086317;54;19955;-80
2023/01/10 10:48:01;;;;;;;;;;;;;;;6.68;70.03;100564.59;1086830;54;19993;-80
2023/01/10 10:49:10;;;;;;;;;;;;;;;6.68;69.86;100565.47;1087055;54;20002;-80
2023/01/10 10:50:20;;;;;;;;;;;;;;;6.61;69.85;100558.03;1087338;54;19946;-79
2023/01/10 10:51:27;;;;;;;;;;;;;;;6.64;69.58;100563.97;1087583;46;20929;-79
2023/01/10 10:52:30;;;;;;;;;;;;;;;6.63;69.74;100570.25;1087643;54;19974;-79
2023/01/10 10:53:35;;;;;;;;;;;;;;;6.64;69.77;100561.31;1087723;54;19968;-80
2023/01/10 10:54:37;;;;;;;;;;;;;;;6.70;69.46;100562.69;1087639;54;19946;-80
2023/01/10 10:55:41;;;;;;;;;;;;;;;6.67;69.69;100561.13;1088377;54;20010;-81
2023/01/10 10:56:45;;;;;;;;;;;;;;;6.75;69.72;100562.38;1088301;54;19970;-83
2023/01/10 10:57:49;;;;;;;;;;;;;;;6.78;69.48;100570.16;1088358;54;19927;-84
2023/01/10 10:58:54;;;;;;;;;;;;;;;6.71;69.25;100562.59;1088353;54;19933;-85
2023/01/10 10:59:58;;;;;;;;;;;;;;;6.69;68.91;100567.19;1088469;54;19978;-82
2023/01/10 11:01:02;;;;;;;;;;;;;;;6.67;68.92;100558.47;1088066;54;19935;-79
2023/01/10 11:02:15;;;;;;;;;;;;;;;6.72;68.61;100556.31;1087724;54;20040;-79
2023/01/10 11:03:27;;;;;;;;;;;;;;;6.65;68.85;100560.38;1087848;54;19927;-79
2023/01/10 11:04:32;;;;;;;;;;;;;;;6.71;69.00;100559.94;1088125;54;19942;-78
2023/01/10 11:05:38;;;;;;;;;;;;;;;6.80;69.05;100554.94;1087636;54;19958;-78
2023/01/10 11:06:47;;;;;;;;;;;;;;;6.94;68.54;100565.44;1087415;54;19942;-78
2023/01/10 11:07:51;;;;;;;;;;;;;;;6.90;68.08;100558.63;1086750;54;19946;-79
2023/01/10 11:08:59;;;;;;;;;;;;;;;6.90;68.02;100553.31;1086939;54;19950;-79
2023/01/10 11:10:13;;;;;;;;;;;;;;;6.94;67.76;100559.28;1087446;54;19981;-80
2023/01/10 11:11:21;;;;;;;;;;;;;;;7.07;67.43;100556.59;1087219;54;19953;-80
2023/01/10 11:12:26;;;;;;;;;;;;;;;7.07;66.32;100557.44;1086587;54;19929;-79
2023/01/10 11:13:45;;;;;;;;;;;;;;;6.93;66.59;100557.59;1086967;54;19973;-81
2023/01/10 11:14:52;;;;;;;;;;;;;;;6.89;66.48;100556.97;1087040;54;19966;-81
2023/01/10 11:15:53;;;;;;;;;;;;;;;6.82;66.43;100555.66;1086958;54;19942;-82
2023/01/10 11:17:17;;;;;;;;;;;;;;;6.82;66.78;100555.66;1087068;54;19953;-82
2023/01/10 11:18:20;;;;;;;;;;;;;;;6.85;66.47;100561.63;1087551;54;19938;-77
2023/01/10 11:19:45;;;;;;;;;;;;;;;6.86;66.54;100559.81;1087758;54;19943;-78
2023/01/10 11:20:48;;;;;;;;;;;;;;;6.91;66.62;100562.16;1087476;54;20453;-80
2023/01/10 11:21:53;;;;;;;;;;;;;;;7.01;66.43;100556.06;1086746;54;19962;-80
2023/01/10 11:22:54;;;;;;;;;;;;;;;6.96;66.33;100560.00;1087423;39;20345;-80
2023/01/10 11:23:59;;;;;;;;;;;;;;;6.86;66.28;100551.84;1086580;54;19954;-78
2023/01/10 11:25:03;;;;;;;;;;;;;;;6.86;66.31;100555.34;1086618;54;19950;-81
2023/01/10 11:26:09;;;;;;;;;;;;;;;6.85;66.11;100552.81;1092652;39;20318;-80
2023/01/10 11:27:14;;;;;;;;;;;;;;;6.99;66.18;100562.47;1087235;54;19942;-78
2023/01/10 11:34:23;;;;;;;;;;;;;;;7.23;65.22;100545.69;1089581;39;20415;-82
2023/01/10 11:35:28;;;;;;;;;;;;;;;7.20;64.97;100546.78;1087562;54;20015;-78
2023/01/10 11:37:03;;;;;;;;;;;;;;;7.15;64.57;100554.25;1087845;46;19943;-81
2023/01/10 11:38:08;;;;;;;;;;;;;;;7.24;64.11;100545.59;1087326;54;19938;-80
2023/01/10 11:39:13;;;;;;;;;;;;;;;7.23;63.97;100551.88;1087031;54;19977;-80
2023/01/10 11:40:19;;;;;;;;;;;;;;;7.28;64.19;100554.19;1087099;54;19948;-81
2023/01/10 11:41:30;;;;;;;;;;;;;;;7.33;63.91;100560.88;1087076;54;19974;-80
2023/01/10 11:42:31;;;;;;;;;;;;;;;7.38;63.85;100555.25;1089479;31;20417;-80
2023/01/10 11:43:36;;;;;;;;;;;;;;;7.55;64.16;100562.00;1087219;54;19950;-80
2023/01/10 11:44:37;;;;;;;;;;;;;;;7.49;63.88;100554.44;1086386;54;19951;-80
2023/01/10 11:45:44;;;;;;;;;;;;;;;7.51;63.70;100554.34;1086488;54;19938;-79
2023/01/10 11:46:45;;;;;;;;;;;;;;;7.43;63.65;100552.25;1087230;54;19950;-81
2023/01/10 11:47:53;;;;;;;;;;;;;;;7.34;63.93;100556.41;1086915;46;20417;-80
2023/01/10 11:49:02;;;;;;;;;;;;;;;7.23;63.70;100562.50;1086625;54;19970;-80
2023/01/10 11:50:07;;;;;;;;;;;;;;;7.20;64.27;100560.06;1086678;54;19957;-82
2023/01/10 11:51:17;;;;;;;;;;;;;;;7.30;64.46;100557.59;1086645;54;19962;-80
2023/01/10 11:52:24;;;;;;;;;;;;;;;7.21;63.99;100559.09;1087192;54;19947;-80
2023/01/10 11:53:31;;;;;;;;;;;;;;;7.23;63.90;100559.00;1087035;54;19953;-80
2023/01/10 11:54:35;;;;;;;;;;;;;;;7.21;63.06;100555.63;1086917;54;19946;-79
2023/01/10 11:55:37;;;;;;;;;;;;;;;7.24;62.18;100566.00;1086981;54;20042;-79
2023/01/10 11:56:42;;;;;;;;;;;;;;;7.30;62.56;100560.25;1086867;54;19957;-80
2023/01/10 11:57:44;;;;;;;;;;;;;;;7.36;62.71;100562.47;1086501;54;19939;-80
2023/01/10 11:58:48;;;;;;;;;;;;;;;7.38;62.88;100562.34;1086731;54;19950;-80
2023/01/10 11:59:53;;;;;;;;;;;;;;;7.48;63.02;100566.91;1087034;54;19942;-79
2023/01/10 12:00:54;;;;;;;;;;;;;;;7.60;62.54;100561.66;1086935;54;19946;-78
2023/01/10 12:02:00;;;;;;;;;;;;;;;7.69;62.54;100557.44;1086792;54;19951;-78
2023/01/10 12:03:02;;;;;;;;;;;;;;;7.64;62.64;100556.00;1086803;54;19939;-78
2023/01/10 12:04:06;;;;;;;;;;;;;;;7.66;62.52;100555.88;1088946;39;20334;-82
2023/01/10 12:05:14;;;;;;;;;;;;;;;7.77;61.95;100557.72;1087285;54;19943;-79
2023/01/10 12:33:20;;;;;;;;;;;;;;;7.92;60.36;100532.63;1085902;54;19958;-80
2023/01/10 12:40:24;;;;;;;;;;;;;;;7.49;60.90;100520.72;1086908;54;19949;-80
2023/01/10 12:49:30;;;;;;;;;;;;;;;7.44;60.88;100508.72;1087463;54;19979;-79
2023/01/10 12:50:37;;;;;;;;;;;;;;;7.37;61.05;100516.28;1087154;54;19939;-79
2023/01/10 12:51:42;;;;;;;;;;;;;;;7.31;61.00;100503.47;1087309;54;19946;-79
2023/01/10 12:52:51;;;;;;;;;;;;;;;7.33;61.40;100518.34;1087368;54;19969;-79
2023/01/10 12:53:55;;;;;;;;;;;;;;;7.48;61.02;100508.38;1087444;54;20010;-80
2023/01/10 12:54:57;;;;;;;;;;;;;;;7.34;61.41;100509.41;1086045;54;19954;-80
2023/01/10 12:56:04;;;;;;;;;;;;;;;7.51;61.07;100509.97;1086097;54;20499;-80
2023/01/10 12:57:13;;;;;;;;;;;;;;;7.46;61.19;100514.78;1086141;54;19963;-80
2023/01/10 12:58:20;;;;;;;;;;;;;;;7.40;60.79;100508.09;1085851;54;19938;-80
2023/01/10 12:59:24;;;;;;;;;;;;;;;7.45;61.04;100515.75;1085967;54;19947;-79
2023/01/10 13:00:31;;;;;;;;;;;;;;;7.39;61.48;100505.53;1086258;54;19946;-81
2023/01/10 13:01:39;;;;;;;;;;;;;;;7.47;61.23;100508.47;1089124;39;20447;-81
2023/01/10 13:02:44;;;;;;;;;;;;;;;7.56;61.04;100507.78;1086183;54;19966;-80
2023/01/10 13:03:53;;;;;;;;;;;;;;;7.71;61.08;100499.63;1086256;54;19938;-80
2023/01/10 13:04:59;;;;;;;;;;;;;;;7.62;61.14;100496.72;1086155;54;19953;-81
2023/01/10 13:06:03;;;;;;;;;;;;;;;7.59;60.79;100496.94;1086184;54;20067;-80
2023/01/10 13:07:05;;;;;;;;;;;;;;;7.59;60.78;100502.25;1086417;39;20796;-81
2023/01/10 13:08:12;;;;;;;;;;;;;;;7.59;60.31;100499.59;1086123;54;20534;-80
2023/01/10 13:09:17;;;;;;;;;;;;;;;7.58;60.62;100500.53;1086572;54;19950;-81
2023/01/10 13:10:20;;;;;;;;;;;;;;;7.67;60.07;100496.38;1086652;54;19946;-81
2023/01/10 13:11:26;;;;;;;;;;;;;;;7.73;59.86;100500.38;1086650;54;20488;-81
2023/01/10 13:12:34;;;;;;;;;;;;;;;7.70;60.05;100497.94;1086343;54;20524;-81
2023/01/10 13:13:39;;;;;;;;;;;;;;;7.78;60.28;100492.88;1086658;54;19942;-80
2023/01/10 13:14:44;;;;;;;;;;;;;;;7.71;60.35;100496.97;1086804;54;19950;-81
2023/01/10 13:15:51;;;;;;;;;;;;;;;7.76;60.15;100495.69;1087898;39;20242;-80
2023/01/10 13:16:55;;;;;;;;;;;;;;;7.63;60.15;100493.09;1086482;54;19969;-80
2023/01/10 13:18:02;;;;;;;;;;;;;;;7.65;60.47;100487.66;1086719;54;19958;-80
2023/01/10 13:19:07;;;;;;;;;;;;;;;7.76;60.44;100487.69;1086409;54;19939;-81
2023/01/10 13:20:24;;;;;;;;;;;;;;;7.75;60.31;100486.00;1087526;31;20496;-79
2023/01/10 13:21:31;;;;;;;;;;;;;;;7.83;60.10;100488.09;1086879;54;19946;-80
2023/01/10 13:22:34;;;;;;;;;;;;;;;7.74;60.04;100486.13;1086894;39;20523;-80
2023/01/10 13:23:41;;;;;;;;;;;;;;;7.67;59.75;100490.19;1086718;54;19958;-80
2023/01/10 13:24:56;;;;;;;;;;;;;;;7.74;59.69;100488.78;1086703;54;19950;-79
2023/01/10 13:26:04;;;;;;;;;;;;;;;7.84;59.68;100494.25;1087281;54;19946;-80
2023/01/10 13:27:16;;;;;;;;;;;;;;;7.78;59.63;100485.78;1087059;54;19981;-80
2023/01/10 13:28:22;;;;;;;;;;;;;;;7.77;59.95;100488.53;1087215;54;19939;-80
2023/01/10 13:29:27;;;;;;;;;;;;;;;7.88;59.69;100487.72;1087124;54;19946;-80
2023/01/10 13:30:32;;;;;;;;;;;;;;;7.78;59.76;100482.25;1087034;54;19966;-80
2023/01/10 13:31:36;;;;;;;;;;;;;;;7.79;59.46;100491.94;1086876;54;19965;-80
2023/01/10 13:32:38;;;;;;;;;;;;;;;7.92;59.32;100486.50;1087044;54;19946;-81
2023/01/10 13:33:52;;;;;;;;;;;;;;;8.04;59.11;100480.25;1087873;46;19970;-80
2023/01/10 13:34:56;;;;;;;;;;;;;;;8.11;59.09;100485.97;1087400;54;19942;-80
2023/01/10 13:36:10;;;;;;;;;;;;;;;8.13;59.16;100489.34;1087231;54;19939;-80
2023/01/10 13:37:15;;;;;;;;;;;;;;;7.88;58.79;100485.06;1087052;54;19958;-79
2023/01/10 13:38:18;;;;;;;;;;;;;;;7.90;58.94;100481.31;1087158;54;19939;-80
2023/01/10 13:39:25;;;;;;;;;;;;;;;7.86;58.74;100484.31;1087028;54;20540;-81
2023/01/10 13:40:30;;;;;;;;;;;;;;;7.76;58.76;100482.38;1087158;54;19953;-80
2023/01/10 13:43:20;;;;;;;;;;;;;;;7.79;58.87;100482.13;1088054;54;19986;-79
2023/01/10 13:44:24;;;;;;;;;;;;;;;7.87;58.37;100484.19;1087162;54;19950;-80
2023/01/10 13:45:26;;;;;;;;;;;;;;;7.87;58.27;100473.56;1087510;54;20638;-80
2023/01/10 13:46:39;;;;;;;;;;;;;;;7.89;57.70;100471.63;1087458;54;19961;-81
2023/01/10 13:47:57;;;;;;;;;;;;;;;7.78;57.01;100482.25;1087460;54;19946;-80
2023/01/10 13:49:28;;;;;;;;;;;;;;;7.81;57.04;100487.34;1088018;39;20346;-80
2023/01/10 13:50:47;;;;;;;;;;;;;;;7.68;55.82;100473.25;1086917;54;19954;-81
2023/01/10 13:52:05;;;;;;;;;;;;;;;7.73;55.33;100476.44;1086410;54;19947;-80
2023/01/10 13:53:24;;;;;;;;;;;;;;;7.78;55.36;100479.56;1087090;54;19938;-80
2023/01/10 13:54:28;;;;;;;;;;;;;;;7.83;55.74;100477.44;1087294;54;19942;-79
2023/01/10 13:55:35;;;;;;;;;;;;;;;7.86;55.76;100471.84;1087354;54;19966;-80
2023/01/10 13:56:37;;;;;;;;;;;;;;;7.88;55.88;100475.25;1088197;54;19991;-80
2023/01/10 13:57:51;;;;;;;;;;;;;;;7.96;56.03;100478.19;1088317;54;19929;-80
2023/01/10 14:02:56;;;;;;;;;;;;;;;7.95;56.81;100476.47;1088414;54;19923;-79
2023/01/10 14:04:01;;;;;;;;;;;;;;;7.87;56.54;100481.53;1087943;54;19950;-80
2023/01/10 14:05:06;;;;;;;;;;;;;;;7.87;56.68;100478.88;1088266;54;19966;-80
2023/01/10 14:06:11;;;;;;;;;;;;;;;7.87;56.52;100484.19;1087882;54;20030;-81
2023/01/10 14:07:23;;;;;;;;;;;;;;;7.87;56.69;100478.88;1087935;54;19943;-80
2023/01/10 14:08:25;;;;;;;;;;;;;;;7.87;56.71;100478.03;1088539;46;19950;-80
2023/01/10 14:09:48;;;;;;;;;;;;;;;7.85;56.85;100485.28;1088325;54;20003;-80
2023/01/10 14:11:06;;;;;;;;;;;;;;;7.96;56.62;100488.81;1088756;46;19939;-80
2023/01/10 14:12:18;;;;;;;;;;;;;;;7.92;56.60;100484.72;1087677;54;20016;-80
2023/01/10 14:13:21;;;;;;;;;;;;;;;8.01;56.50;100485.81;1087963;46;19986;-81
2023/01/10 14:14:29;;;;;;;;;;;;;;;8.04;56.71;100487.38;1088207;54;19938;-81
2023/01/10 14:15:38;;;;;;;;;;;;;;;8.00;56.65;100491.25;1088180;54;19942;-81
2023/01/10 14:16:40;;;;;;;;;;;;;;;7.89;56.45;100484.94;1088580;46;19942;-81
2023/01/10 14:17:44;;;;;;;;;;;;;;;7.95;56.70;100495.13;1087192;54;19953;-81
2023/01/10 14:18:45;;;;;;;;;;;;;;;8.05;56.78;100491.75;1086899;54;19950;-80
2023/01/10 14:19:50;;;;;;;;;;;;;;;8.00;56.46;100494.75;1087850;46;19981;-79
2023/01/10 14:20:59;;;;;;;;;;;;;;;7.95;56.18;100489.78;1089204;39;20410;-80
2023/01/10 14:22:02;;;;;;;;;;;;;;;7.94;56.17;100487.25;1087068;54;19945;-81
2023/01/10 14:23:09;;;;;;;;;;;;;;;7.89;56.27;100481.41;1087350;54;19983;-81
2023/01/10 14:24:21;;;;;;;;;;;;;;;7.87;55.97;100491.34;1087844;54;19942;-79
2023/01/10 14:25:29;;;;;;;;;;;;;;;7.89;55.96;100482.28;1091205;46;20343;-80
2023/01/10 14:26:39;;;;;;;;;;;;;;;7.93;56.30;100486.41;1087634;47;19946;-80
2023/01/10 14:27:46;;;;;;;;;;;;;;;8.01;56.14;100485.81;1087097;54;19979;-80
2023/01/10 14:28:55;;;;;;;;;;;;;;;7.92;55.85;100487.38;1087039;54;19946;-80
2023/01/10 14:30:00;;;;;;;;;;;;;;;7.93;55.97;100485.56;1087324;54;19949;-80
2023/01/10 14:31:06;;;;;;;;;;;;;;;7.89;55.19;100482.28;1087218;54;19946;-81
2023/01/10 14:32:16;;;;;;;;;;;;;;;7.90;54.74;100477.78;1087085;54;19946;-80
2023/01/10 14:33:21;;;;;;;;;;;;;;;7.86;54.43;100487.00;1087129;54;20038;-80
2023/01/10 14:34:27;;;;;;;;;;;;;;;7.75;54.25;100482.47;1086587;54;19965;-80
2023/01/10 14:35:32;;;;;;;;;;;;;;;7.79;54.14;100483.94;1087119;54;19958;-80
2023/01/10 14:36:39;;;;;;;;;;;;;;;7.72;54.13;100482.72;1087061;54;19954;-81
2023/01/10 14:37:45;;;;;;;;;;;;;;;7.70;54.15;100487.28;1089571;39;20442;-80
2023/01/10 14:38:51;;;;;;;;;;;;;;;7.69;54.28;100485.59;1087097;54;19934;-80
2023/01/10 14:39:54;;;;;;;;;;;;;;;7.65;54.50;100485.81;1087269;54;19934;-81
2023/01/10 14:41:00;;;;;;;;;;;;;;;7.73;54.21;100487.06;1087406;54;19953;-80
2023/01/10 14:42:08;;;;;;;;;;;;;;;7.74;54.52;100484.28;1087143;54;19947;-80
2023/01/10 14:43:15;;;;;;;;;;;;;;;7.68;54.15;100476.78;1087677;39;20412;-80
2023/01/10 14:44:21;;;;;;;;;;;;;;;7.84;54.43;100480.94;1087440;54;19946;-80
2023/01/10 14:45:28;;;;;;;;;;;;;;;7.85;54.14;100474.66;1087417;54;19943;-80
2023/01/10 14:46:35;;;;;;;;;;;;;;;7.88;54.52;100480.56;1087472;54;20433;-80
2023/01/10 14:47:39;;;;;;;;;;;;;;;7.86;54.36;100471.84;1087393;54;19946;-80
2023/01/10 14:48:43;;;;;;;;;;;;;;;7.80;54.47;100472.34;1087323;54;19950;-80
2023/01/10 14:49:50;;;;;;;;;;;;;;;7.87;54.27;100470.06;1087514;54;19953;-80
2023/01/10 14:50:52;;;;;;;;;;;;;;;7.80;54.33;100467.84;1087400;54;19953;-80
2023/01/10 14:51:59;;;;;;;;;;;;;;;7.84;54.35;100472.94;1087191;54;19947;-79
2023/01/10 14:53:00;;;;;;;;;;;;;;;7.89;54.45;100460.97;1087442;54;19950;-79
2023/01/10 14:54:05;;;;;;;;;;;;;;;7.89;54.59;100460.97;1087480;54;19943;-79
2023/01/10 14:55:12;;;;;;;;;;;;;;;7.76;54.27;100470.84;1087220;54;19971;-80
2023/01/10 14:56:17;;;;;;;;;;;;;;;7.74;54.46;100470.97;1087402;54;19954;-80
2023/01/10 14:57:25;;;;;;;;;;;;;;;7.71;54.53;100471.19;1087379;54;19950;-80
2023/01/10 14:58:26;;;;;;;;;;;;;;;7.65;54.94;100471.69;1087303;54;19943;-80
2023/01/10 14:59:32;;;;;;;;;;;;;;;7.60;54.78;100465.88;1087311;54;19958;-80
2023/01/10 15:00:39;;;;;;;;;;;;;;;7.62;54.94;100469.22;1089265;39;20461;-81
2023/01/10 15:01:43;;;;;;;;;;;;;;;7.61;55.01;100465.75;1088366;46;19965;-80
2023/01/10 15:02:48;;;;;;;;;;;;;;;7.60;54.88;100456.06;1087381;54;19947;-81
2023/01/10 15:03:50;;;;;;;;;;;;;;;7.56;55.00;100454.56;1087588;54;19953;-80
2023/01/10 15:04:56;;;;;;;;;;;;;;;7.59;55.14;100454.34;1087439;39;19997;-81
2023/01/10 15:05:57;;;;;;;;;;;;;;;7.61;55.28;100459.56;1087221;54;19950;-81
2023/01/10 15:07:02;;;;;;;;;;;;;;;7.58;55.11;100457.16;1087383;54;19950;-80
2023/01/10 15:08:14;;;;;;;;;;;;;;;7.72;55.02;100446.28;1087464;54;19994;-81
2023/01/10 15:09:18;;;;;;;;;;;;;;;7.73;55.35;100444.50;1087681;54;20319;-80
2023/01/10 15:10:24;;;;;;;;;;;;;;;7.72;55.23;100440.13;1089041;46;19950;-79
2023/01/10 15:11:29;;;;;;;;;;;;;;;7.73;55.29;100439.16;1088423;46;19946;-79
2023/01/10 15:12:36;;;;;;;;;;;;;;;7.83;55.20;100440.16;1087974;54;19947;-79
2023/01/10 15:13:46;;;;;;;;;;;;;;;7.77;55.20;100435.28;1087778;54;19941;-80
2023/01/10 15:14:50;;;;;;;;;;;;;;;7.69;55.65;100435.03;1087325;54;20008;-80
2023/01/10 15:15:51;;;;;;;;;;;;;;;7.68;55.73;100431.53;1087306;54;20026;-79
2023/01/10 15:16:56;;;;;;;;;;;;;;;7.67;55.92;100434.28;1087584;54;19954;-79
2023/01/10 15:18:01;;;;;;;;;;;;;;;7.57;55.79;100429.66;1087860;39;20429;-81
2023/01/10 15:19:05;;;;;;;;;;;;;;;7.56;56.14;100430.63;1094521;39;20423;-80
2023/01/10 15:20:07;;;;;;;;;;;;;;;7.64;55.86;100435.38;1087605;54;19946;-81
2023/01/10 15:21:13;;;;;;;;;;;;;;;7.67;55.86;100434.28;1088009;31;20446;-79
2023/01/10 15:22:19;;;;;;;;;;;;;;;7.59;55.90;100432.22;1087466;54;19957;-81
2023/01/10 15:23:20;;;;;;;;;;;;;;;7.59;56.11;100429.56;1087325;54;19953;-81
2023/01/10 15:24:34;;;;;;;;;;;;;;;7.57;55.84;100419.03;1087376;54;19953;-80
2023/01/10 15:25:37;;;;;;;;;;;;;;;7.62;55.84;100416.00;1087415;54;19975;-80
2023/01/10 15:26:41;;;;;;;;;;;;;;;7.63;55.84;100423.91;1092561;39;20358;-81
2023/01/10 15:27:46;;;;;;;;;;;;;;;7.67;55.97;100424.50;1087313;54;19957;-80
2023/01/10 15:29:03;;;;;;;;;;;;;;;7.57;56.10;100424.34;1087636;54;19969;-80
2023/01/10 15:30:09;;;;;;;;;;;;;;;7.60;55.90;100421.47;1087181;54;19954;-80
2023/01/10 15:31:15;;;;;;;;;;;;;;;7.55;56.01;100420.97;1087601;54;19977;-80
2023/01/10 15:32:21;;;;;;;;;;;;;;;7.48;55.80;100414.41;1087341;54;19958;-80
2023/01/10 15:33:28;;;;;;;;;;;;;;;7.54;55.86;100418.41;1087365;54;20457;-80
2023/01/10 15:34:32;;;;;;;;;;;;;;;7.55;55.79;100415.66;1087515;54;19953;-80
2023/01/10 15:35:36;;;;;;;;;;;;;;;7.56;56.20;100414.66;1087589;54;19927;-81
2023/01/10 15:36:41;;;;;;;;;;;;;;;7.57;56.14;100411.03;1087615;54;19946;-80
2023/01/10 15:37:50;;;;;;;;;;;;;;;7.57;55.93;100405.72;1087296;54;19973;-79
2023/01/10 15:38:51;;;;;;;;;;;;;;;7.56;56.12;100406.69;1087216;54;19942;-83
2023/01/10 15:39:57;;;;;;;;;;;;;;;7.59;55.85;100401.13;1087513;54;19947;-80
2023/01/10 15:43:46;;;;;;;;;;;;;;;7.59;56.11;100400.31;1087602;54;19922;-78
2023/01/10 15:44:54;;;;;;;;;;;;;;;7.63;56.23;100397.28;1088072;54;19942;-79
2023/01/10 15:45:56;;;;;;;;;;;;;;;7.68;56.21;100404.06;1087913;54;20278;-81
2023/01/10 15:50:10;;;;;;;;;;;;;;;7.57;56.32;100397.75;1086037;54;19938;-78
2023/01/10 15:51:38;;;;;;;;;;;;;;;7.63;56.15;100397.28;1085880;54;19946;-78
2023/01/10 15:52:55;;;;;;;;;;;;;;;7.65;56.26;100402.50;1085907;54;19946;-78
2023/01/10 15:54:14;;;;;;;;;;;;;;;7.55;56.23;100401.50;1088256;39;20356;-78
2023/01/10 16:40:28;;;;;;;;;;;;;;;7.39;56.71;100378.72;1089666;54;19938;-78
2023/01/10 16:44:02;;;;;;;;;;;;;;;7.27;56.92;100372.53;1090912;38;20469;-77
2023/01/10 16:45:30;;;;;;;;;;;;;;;;;;;;;
2023/01/10 16:46:46;;;;;;;;;;;;;;;7.31;56.73;100365.16;1091917;46;19938;-80
2023/01/10 16:47:47;;;;;;;;;;;;;;;7.24;57.36;100371.88;1089391;54;19998;-79
2023/01/10 16:48:53;;;;;;;;;;;;;;;7.33;57.14;100366.72;1089471;54;19934;-79
2023/01/10 16:49:54;;;;;;;;;;;;;;;7.37;57.09;100367.34;1089708;54;20530;-79
2023/01/10 16:51:06;;;;;;;;;;;;;;;7.25;57.39;100368.25;1090563;31;20456;-78
2023/01/10 16:52:13;;;;;;;;;;;;;;;7.27;57.07;100364.53;1089669;54;20439;-79
2023/01/10 16:53:15;;;;;;;;;;;;;;;7.34;56.82;100360.44;1089688;54;19947;-79
2023/01/10 16:54:21;;;;;;;;;;;;;;;7.33;57.26;100365.88;1089663;54;19947;-79
2023/01/10 16:55:29;;;;;;;;;;;;;;;7.33;56.72;100363.22;1089759;54;19947;-80